Time;durP1;ratioP1;P1;durP2;ratioP2;P2;SDS_P1;SDS_P2;PMS_P1;PMS_P2;Temp;Humidity;BMP_temperature;BMP_pressure;BME280_temperature;BME280_humidity;BME280_pressure;Samples;Min_cycle;Max_cycle;Signal;HPM_P1;HPM_P2
2022/01/10 00:02:06;;;;;;;71.68;36.30;;;1.40;99.90;;;;;;5057469;28;20032;-59
2022/01/10 00:04:33;;;;;;;73.20;36.45;;;1.40;99.90;;;;;;5057425;28;20031;-59
2022/01/10 00:06:59;;;;;;;72.25;37.10;;;1.40;99.90;;;;;;5057113;28;20029;-60
2022/01/10 00:09:24;;;;;;;65.63;34.92;;;1.50;99.90;;;;;;5057220;28;20037;-59
2022/01/10 00:11:50;;;;;;;60.25;30.55;;;1.50;99.90;;;;;;5057155;28;20051;-60
2022/01/10 00:14:16;;;;;;;63.03;33.20;;;1.50;99.90;;;;;;5056931;28;20029;-59
2022/01/10 00:16:42;;;;;;;65.65;33.97;;;1.50;99.90;;;;;;5057148;28;20467;-59
2022/01/10 00:19:08;;;;;;;69.50;34.95;;;1.50;99.90;;;;;;5057035;28;20025;-60
2022/01/10 00:21:34;;;;;;;61.38;31.42;;;1.50;99.90;;;;;;5057174;28;20095;-59
2022/01/10 00:24:00;;;;;;;58.35;31.55;;;1.40;99.90;;;;;;5057324;28;20090;-59
2022/01/10 00:26:26;;;;;;;60.60;31.88;;;1.40;99.90;;;;;;5056735;28;20079;-59
2022/01/10 00:28:52;;;;;;;72.70;35.47;;;1.40;99.90;;;;;;5056838;28;20036;-59
2022/01/10 00:31:18;;;;;;;75.93;37.38;;;1.40;99.90;;;;;;5055714;28;20083;-59
2022/01/10 00:33:44;;;;;;;203.18;73.15;;;1.40;99.90;;;;;;5055421;28;20036;-59
2022/01/10 00:36:11;;;;;;;118.80;49.47;;;1.40;99.90;;;;;;5055410;28;20028;-59
2022/01/10 00:38:37;;;;;;;105.32;44.72;;;1.40;99.90;;;;;;5056653;28;20020;-60
2022/01/10 00:41:03;;;;;;;81.22;38.15;;;1.40;99.90;;;;;;5056691;28;20047;-59
2022/01/10 00:43:35;;;;;;;88.32;38.70;;;1.40;99.90;;;;;;5055214;28;20112;-60
2022/01/10 00:46:03;;;;;;;130.85;49.10;;;1.40;99.90;;;;;;5054974;28;20052;-59
2022/01/10 00:48:29;;;;;;;171.40;59.65;;;1.40;99.90;;;;;;5056521;28;20032;-59
2022/01/10 00:50:55;;;;;;;204.55;70.20;;;1.40;99.90;;;;;;5056472;28;20040;-59
2022/01/10 00:53:22;;;;;;;149.18;55.17;;;1.40;99.90;;;;;;5054885;28;20044;-59
2022/01/10 00:55:48;;;;;;;129.10;49.15;;;1.40;99.90;;;;;;5056494;28;20055;-59
2022/01/10 00:58:14;;;;;;;251.85;85.63;;;1.40;99.90;;;;;;5056289;28;20028;-60
2022/01/10 01:00:40;;;;;;;195.68;70.47;;;1.40;99.90;;;;;;5056254;28;20107;-60
2022/01/10 01:03:06;;;;;;;112.20;46.13;;;1.40;99.90;;;;;;5054856;28;20028;-59
2022/01/10 01:05:38;;;;;;;96.20;43.13;;;1.40;99.90;;;;;;5054984;28;20367;-60
2022/01/10 01:08:06;;;;;;;152.73;55.78;;;1.30;99.90;;;;;;5056194;28;20021;-59
2022/01/10 01:13:22;;;;;;;86.43;40.80;;;1.30;99.90;;;;;;5055960;28;20065;-59
2022/01/10 01:24:03;;;;;;;80.70;37.85;;;1.50;99.90;;;;;;5055822;28;20039;-59
2022/01/10 01:26:31;;;;;;;76.55;37.83;;;1.40;99.90;;;;;;5054229;28;20116;-59
2022/01/10 01:28:57;;;;;;;75.70;36.67;;;1.40;99.90;;;;;;5055802;28;20110;-59
2022/01/10 01:31:23;;;;;;;79.90;37.92;;;1.40;99.90;;;;;;5055769;28;20032;-59
2022/01/10 01:33:49;;;;;;;73.28;35.22;;;1.40;99.90;;;;;;5054255;28;20033;-59
2022/01/10 01:36:21;;;;;;;74.53;36.67;;;1.40;99.90;;;;;;5055443;28;20470;-59
2022/01/10 01:38:47;;;;;;;78.38;36.33;;;1.30;99.90;;;;;;5054194;28;20435;-59
2022/01/10 01:43:46;;;;;;;72.70;35.75;;;1.30;99.90;;;;;;5055380;28;20424;-59
2022/01/10 01:46:14;;;;;;;74.35;35.97;;;1.30;99.90;;;;;;5053957;28;20035;-60
2022/01/10 01:48:40;;;;;;;76.55;36.20;;;1.30;99.90;;;;;;5054159;28;20140;-59
2022/01/10 01:51:06;;;;;;;74.25;37.45;;;1.30;99.90;;;;;;5053957;28;20425;-59
2022/01/10 01:53:36;;;;;;;77.45;37.67;;;1.20;99.90;;;;;;5053726;28;20045;-60
2022/01/10 01:56:08;;;;;;;82.28;37.45;;;1.20;99.90;;;;;;5054050;28;20155;-60
2022/01/10 01:58:36;;;;;;;81.82;37.33;;;1.30;99.90;;;;;;5053256;28;20025;-60
2022/01/10 02:01:03;;;;;;;82.28;37.60;;;1.30;99.90;;;;;;5053740;28;20040;-60
2022/01/10 02:03:33;;;;;;;79.57;39.00;;;1.40;99.90;;;;;;5053827;28;20040;-59
2022/01/10 02:06:02;;;;;;;86.97;37.85;;;1.30;99.90;;;;;;5053651;28;20432;-59
2022/01/10 02:08:29;;;;;;;78.90;36.45;;;1.30;99.90;;;;;;5053638;28;20033;-60
2022/01/10 02:10:55;;;;;;;86.63;38.83;;;1.30;99.90;;;;;;5053754;28;20037;-59
2022/01/10 02:13:22;;;;;;;80.63;37.83;;;1.30;99.90;;;;;;5053485;28;20033;-60
2022/01/10 02:16:16;;;;;;;83.55;38.28;;;1.30;99.90;;;;;;5053448;28;20091;-59
2022/01/10 02:18:43;;;;;;;78.88;36.60;;;1.20;99.90;;;;;;5053370;28;20550;-59
2022/01/10 02:21:09;;;;;;;86.45;39.33;;;1.20;99.90;;;;;;5053469;28;20036;-59
2022/01/10 02:23:37;;;;;;;82.20;37.85;;;1.20;99.90;;;;;;5053328;28;20083;-59
2022/01/10 02:26:07;;;;;;;82.15;36.92;;;1.30;99.90;;;;;;5053354;28;20051;-60
2022/01/10 02:28:35;;;;;;;77.10;36.35;;;1.30;99.90;;;;;;5053232;28;20037;-59
2022/01/10 02:31:01;;;;;;;78.07;35.33;;;1.30;99.90;;;;;;5053513;28;20028;-59
2022/01/10 02:33:31;;;;;;;79.22;37.85;;;1.30;99.90;;;;;;5054391;28;20039;-59
2022/01/10 02:36:16;;;;;;;75.50;34.17;;;1.30;99.90;;;;;;5053195;28;20474;-59
2022/01/10 02:38:50;;;;;;;72.15;33.38;;;1.40;99.90;;;;;;5054465;28;20025;-59
2022/01/10 02:41:29;;;;;;;77.60;33.78;;;1.40;99.90;;;;;;5053188;28;20031;-60
2022/01/10 02:43:57;;;;;;;71.20;33.28;;;1.40;99.90;;;;;;5054327;28;20379;-59
2022/01/10 02:46:25;;;;;;;73.00;32.70;;;1.40;99.90;;;;;;5053210;28;20032;-60
2022/01/10 02:48:52;;;;;;;63.75;31.02;;;1.40;99.90;;;;;;5053122;28;20029;-59
2022/01/10 02:51:19;;;;;;;63.88;32.80;;;1.40;99.90;;;;;;5053076;28;20059;-59
2022/01/10 02:53:46;;;;;;;63.00;30.95;;;1.40;99.90;;;;;;5052899;28;20102;-59
2022/01/10 02:56:12;;;;;;;65.35;31.55;;;1.40;99.90;;;;;;5052853;28;20039;-59
2022/01/10 02:58:40;;;;;;;58.05;28.08;;;1.30;99.90;;;;;;5053042;28;20112;-59
2022/01/10 03:01:06;;;;;;;56.00;27.88;;;1.30;99.90;;;;;;5054296;28;20132;-59
2022/01/10 03:03:32;;;;;;;55.10;27.48;;;1.30;99.90;;;;;;5054217;28;20025;-59
2022/01/10 03:06:00;;;;;;;60.38;28.98;;;1.10;99.90;;;;;;5054129;28;20501;-60
2022/01/10 03:08:27;;;;;;;59.72;28.52;;;1.20;99.90;;;;;;5054208;28;20467;-59
2022/01/10 03:10:55;;;;;;;52.17;27.23;;;1.20;99.90;;;;;;5056620;28;20385;-59
2022/01/10 03:13:21;;;;;;;51.95;25.92;;;1.20;99.90;;;;;;5058370;28;20381;-59
2022/01/10 03:15:47;;;;;;;50.50;24.92;;;1.20;99.90;;;;;;5056951;28;20025;-59
2022/01/10 03:18:13;;;;;;;44.22;23.38;;;1.30;99.90;;;;;;5058124;28;20032;-59
2022/01/10 03:20:39;;;;;;;48.80;23.90;;;1.30;99.90;;;;;;5056848;28;20033;-60
2022/01/10 03:23:06;;;;;;;48.63;24.92;;;1.30;99.90;;;;;;5056806;28;20047;-59
2022/01/10 03:25:32;;;;;;;50.78;26.13;;;1.30;99.90;;;;;;5058074;28;20025;-59
2022/01/10 03:28:01;;;;;;;52.15;26.25;;;1.30;99.90;;;;;;5056804;28;20033;-60
2022/01/10 03:30:28;;;;;;;49.90;25.30;;;1.20;99.90;;;;;;5056744;28;20051;-59
2022/01/10 03:32:58;;;;;;;51.67;24.35;;;1.20;99.90;;;;;;5057669;28;20033;-59
2022/01/10 03:35:31;;;;;;;46.63;24.15;;;1.10;99.90;;;;;;5056689;28;20040;-59
2022/01/10 03:38:18;;;;;;;49.63;23.83;;;1.20;99.90;;;;;;5056583;28;20028;-59
2022/01/10 03:40:46;;;;;;;50.88;24.40;;;1.20;99.90;;;;;;5057797;28;20119;-60
2022/01/10 03:43:20;;;;;;;46.65;24.17;;;1.20;99.90;;;;;;5056405;28;20029;-59
2022/01/10 03:45:52;;;;;;;46.65;23.25;;;1.20;99.90;;;;;;5057643;28;20034;-59
2022/01/10 03:48:20;;;;;;;44.78;22.95;;;1.10;99.90;;;;;;5056323;28;20036;-59
2022/01/10 03:50:50;;;;;;;42.83;21.60;;;1.10;99.90;;;;;;5057669;28;20103;-59
2022/01/10 03:53:22;;;;;;;;;;;1.10;99.90;;;;;;5056468;28;20051;-60
2022/01/10 03:55:51;;;;;;;45.28;22.35;;;1.10;99.90;;;;;;5056221;28;19912;-59
2022/01/10 03:58:21;;;;;;;49.08;25.00;;;1.10;99.90;;;;;;5056237;28;20064;-59
2022/01/10 04:00:47;;;;;;;46.90;22.33;;;1.00;99.90;;;;;;5057424;28;20029;-59
2022/01/10 04:03:13;;;;;;;44.95;23.58;;;1.10;99.90;;;;;;5057446;28;20068;-60
2022/01/10 04:05:48;;;;;;;58.28;27.15;;;1.00;99.90;;;;;;5056151;28;20028;-59
2022/01/10 04:08:16;;;;;;;60.90;27.02;;;1.00;99.90;;;;;;5055941;28;20036;-59
2022/01/10 04:10:42;;;;;;;60.90;27.77;;;1.10;99.90;;;;;;5055964;28;20387;-59
2022/01/10 04:13:09;;;;;;;63.65;29.52;;;1.00;99.90;;;;;;5055648;28;20064;-59
2022/01/10 04:15:35;;;;;;;59.85;28.63;;;1.00;99.90;;;;;;5055935;28;20033;-60
2022/01/10 04:18:02;;;;;;;60.33;27.67;;;1.00;99.90;;;;;;5055822;28;20378;-59
2022/01/10 04:20:29;;;;;;;57.70;28.15;;;1.00;99.90;;;;;;5055372;28;20032;-59
2022/01/10 04:22:56;;;;;;;71.60;32.10;;;1.00;99.90;;;;;;5055379;28;20091;-59
2022/01/10 04:25:22;;;;;;;61.08;29.05;;;1.10;99.90;;;;;;5056980;28;20493;-60
2022/01/10 04:27:48;;;;;;;62.72;30.75;;;1.00;99.90;;;;;;5056840;28;20025;-59
2022/01/10 04:30:22;;;;;;;64.30;30.45;;;1.00;99.90;;;;;;5055582;28;20032;-60
2022/01/10 04:32:48;;;;;;;52.45;26.38;;;1.00;99.90;;;;;;5056830;28;20063;-60
2022/01/10 04:35:14;;;;;;;48.08;24.73;;;1.00;99.90;;;;;;5056512;28;20025;-60
2022/01/10 04:37:40;;;;;;;54.70;27.13;;;1.20;99.90;;;;;;5055324;28;20032;-60
2022/01/10 04:40:09;;;;;;;49.85;25.80;;;1.20;99.90;;;;;;5055478;28;20460;-59
2022/01/10 04:42:53;;;;;;;51.30;25.38;;;1.10;99.90;;;;;;5055188;28;20107;-60
2022/01/10 04:45:20;;;;;;;59.97;26.42;;;1.20;99.90;;;;;;5055331;28;20025;-60
2022/01/10 04:47:47;;;;;;;56.95;24.92;;;1.10;99.90;;;;;;5055253;28;20025;-60
2022/01/10 04:50:40;;;;;;;57.05;26.17;;;1.00;99.90;;;;;;5055289;28;20139;-60
2022/01/10 04:53:03;;;;;;;79.18;36.38;;;1.00;99.90;;;;;;5054698;28;20056;-60
2022/01/10 04:55:30;;;;;;;67.13;29.63;;;1.10;99.90;;;;;;5055369;28;20349;-60
2022/01/10 04:57:56;;;;;;;58.72;28.55;;;0.90;99.90;;;;;;5054982;28;20151;-60
2022/01/10 05:00:22;;;;;;;74.85;35.20;;;0.90;99.90;;;;;;5054883;28;20145;-60
2022/01/10 05:02:50;;;;;;;67.20;31.35;;;0.90;99.90;;;;;;5055089;28;20025;-60
2022/01/10 05:05:16;;;;;;;70.68;35.30;;;0.90;99.90;;;;;;5054792;28;20044;-60
2022/01/10 05:07:42;;;;;;;63.13;30.58;;;1.10;99.90;;;;;;5054925;28;20029;-60
2022/01/10 05:10:10;;;;;;;66.60;30.05;;;1.10;99.90;;;;;;5054878;28;20033;-60
2022/01/10 05:12:46;;;;;;;69.80;33.33;;;1.10;99.90;;;;;;5054591;28;20085;-60
2022/01/10 05:15:13;;;;;;;69.70;32.45;;;1.20;99.90;;;;;;5054777;28;20028;-60
2022/01/10 05:17:39;;;;;;;67.88;31.88;;;1.10;99.90;;;;;;5055857;28;20094;-60
2022/01/10 05:20:06;;;;;;;71.93;31.50;;;1.10;99.90;;;;;;5054603;28;20029;-60
2022/01/10 05:22:34;;;;;;;87.05;34.80;;;1.10;99.90;;;;;;5055977;28;20082;-60
2022/01/10 05:25:00;;;;;;;84.63;32.78;;;1.10;99.90;;;;;;5055715;28;20040;-60
2022/01/10 05:27:27;;;;;;;83.28;36.15;;;1.10;99.90;;;;;;5054242;28;20148;-60
2022/01/10 05:29:55;;;;;;;91.85;41.05;;;1.00;99.90;;;;;;5052575;28;20485;-60
2022/01/10 05:32:21;;;;;;;80.78;35.92;;;1.10;99.90;;;;;;5051834;28;20032;-60
2022/01/10 05:35:00;;;;;;;81.82;35.53;;;1.10;99.90;;;;;;5048761;28;20159;-61
2022/01/10 05:37:26;;;;;;;72.55;31.83;;;1.10;99.90;;;;;;5034425;28;20423;-60
2022/01/10 05:39:52;;;;;;;81.88;37.20;;;1.10;99.90;;;;;;5035344;28;20026;-60
2022/01/10 05:42:20;;;;;;;91.03;37.33;;;1.10;99.90;;;;;;5035380;28;20032;-61
2022/01/10 05:44:47;;;;;;;85.35;37.45;;;1.20;99.90;;;;;;5034182;28;20029;-60
2022/01/10 05:47:14;;;;;;;100.68;42.83;;;1.10;99.90;;;;;;5033908;28;20037;-60
2022/01/10 05:49:47;;;;;;;91.00;37.03;;;1.10;99.90;;;;;;5033929;28;20064;-60
2022/01/10 05:52:15;;;;;;;77.93;33.20;;;1.10;99.90;;;;;;5033836;28;20502;-60
2022/01/10 05:54:43;;;;;;;87.72;40.33;;;1.00;99.90;;;;;;5035365;28;20037;-60
2022/01/10 05:57:09;;;;;;;78.10;35.22;;;1.00;99.90;;;;;;5033946;28;20037;-60
2022/01/10 05:59:41;;;;;;;124.10;54.70;;;1.10;99.90;;;;;;5033951;28;20052;-60
2022/01/10 06:02:07;;;;;;;86.93;38.90;;;1.00;99.90;;;;;;5034063;28;20029;-60
2022/01/10 06:04:33;;;;;;;89.97;40.97;;;1.00;99.90;;;;;;5033931;28;20065;-60
2022/01/10 06:07:28;;;;;;;100.90;43.97;;;1.00;99.90;;;;;;5034641;28;20042;-60
2022/01/10 06:09:54;;;;;;;63.17;31.67;;;0.90;99.90;;;;;;5033719;28;20180;-60
2022/01/10 06:12:20;;;;;;;74.15;31.88;;;1.00;99.90;;;;;;5036111;28;20033;-61
2022/01/10 06:14:46;;;;;;;75.63;32.75;;;0.90;99.90;;;;;;5053504;28;20387;-60
2022/01/10 06:17:13;;;;;;;60.05;29.90;;;1.00;99.90;;;;;;5053289;28;20082;-60
2022/01/10 06:19:39;;;;;;;60.53;28.92;;;0.90;99.90;;;;;;5038283;28;20475;-60
2022/01/10 06:22:05;;;;;;;57.92;27.35;;;0.80;99.90;;;;;;5054148;28;20031;-60
2022/01/10 06:24:32;;;;;;;60.58;27.48;;;0.90;99.90;;;;;;5054137;28;20021;-60
2022/01/10 06:26:58;;;;;;;65.75;31.17;;;1.00;99.90;;;;;;5053906;28;20703;-60
2022/01/10 06:29:24;;;;;;;61.05;29.27;;;1.10;99.90;;;;;;5048784;28;20424;-60
2022/01/10 06:31:51;;;;;;;61.80;32.50;;;1.00;99.90;;;;;;5052017;28;20021;-60
2022/01/10 06:34:18;;;;;;;57.70;28.85;;;0.90;99.90;;;;;;5053547;28;20025;-60
2022/01/10 06:36:45;;;;;;;64.97;31.00;;;1.00;99.90;;;;;;5053686;28;20029;-60
2022/01/10 06:39:12;;;;;;;60.00;30.05;;;0.90;99.90;;;;;;5053039;28;20033;-61
2022/01/10 06:41:45;;;;;;;66.95;28.92;;;0.90;99.90;;;;;;5053763;28;20025;-60
2022/01/10 06:44:12;;;;;;;59.35;28.42;;;0.90;99.90;;;;;;5053359;28;20036;-60
2022/01/10 06:46:38;;;;;;;59.10;28.83;;;1.00;99.90;;;;;;5053078;28;20032;-60
2022/01/10 06:49:05;;;;;;;77.75;36.17;;;1.00;99.90;;;;;;5053277;28;20348;-60
2022/01/10 06:51:31;;;;;;;76.38;33.03;;;1.00;99.90;;;;;;5053495;28;20029;-60
2022/01/10 06:53:57;;;;;;;70.70;30.30;;;0.90;99.90;;;;;;5052874;28;20482;-61
2022/01/10 06:56:25;;;;;;;60.80;28.48;;;0.90;99.90;;;;;;5052182;28;20052;-61
2022/01/10 06:58:54;;;;;;;63.95;31.02;;;0.90;99.90;;;;;;5053240;28;20178;-60
2022/01/10 07:01:29;;;;;;;70.00;30.80;;;0.90;99.90;;;;;;5053044;28;20033;-60
2022/01/10 07:03:58;;;;;;;84.18;33.67;;;0.90;99.90;;;;;;5052737;28;20029;-60
2022/01/10 07:06:25;;;;;;;64.55;31.85;;;1.00;99.90;;;;;;5053017;28;20032;-60
2022/01/10 07:08:53;;;;;;;63.22;29.98;;;1.00;99.90;;;;;;5053029;28;20029;-61
2022/01/10 07:11:27;;;;;;;75.38;33.08;;;1.00;99.90;;;;;;5052854;28;20835;-60
2022/01/10 07:13:53;;;;;;;82.50;34.47;;;1.00;99.90;;;;;;5051090;28;20033;-61
2022/01/10 07:16:21;;;;;;;75.80;33.63;;;0.90;99.90;;;;;;5052003;28;20044;-61
2022/01/10 07:18:58;;;;;;;70.20;31.08;;;0.90;99.90;;;;;;5050202;28;20055;-60
2022/01/10 07:21:30;;;;;;;58.50;29.92;;;0.90;99.90;;;;;;5050747;28;20029;-61
2022/01/10 07:23:58;;;;;;;59.13;30.15;;;0.90;99.90;;;;;;5053057;28;20032;-61
2022/01/10 07:26:24;;;;;;;60.40;29.50;;;1.00;99.90;;;;;;5054155;28;20032;-60
2022/01/10 07:28:50;;;;;;;56.13;29.33;;;1.00;99.90;;;;;;5054370;28;20032;-60
2022/01/10 07:31:17;;;;;;;65.38;30.90;;;1.00;99.90;;;;;;5054285;28;20029;-62
2022/01/10 07:33:43;;;;;;;68.18;30.65;;;1.00;99.90;;;;;;5054305;28;20044;-61
2022/01/10 07:36:12;;;;;;;61.53;29.15;;;1.10;99.90;;;;;;5054253;28;20029;-61
2022/01/10 07:38:38;;;;;;;60.50;28.63;;;1.10;99.90;;;;;;5054123;28;20104;-60
2022/01/10 07:41:07;;;;;;;70.05;30.42;;;1.00;99.90;;;;;;5053786;28;20057;-61
2022/01/10 07:43:34;;;;;;;54.03;26.38;;;1.00;99.90;;;;;;5053225;28;20025;-61
2022/01/10 07:46:05;;;;;;;71.35;33.58;;;1.10;99.90;;;;;;5051321;28;20033;-61
2022/01/10 07:48:34;;;;;;;58.00;28.50;;;1.00;99.90;;;;;;5044139;28;20037;-61
2022/01/10 07:51:01;;;;;;;54.75;25.17;;;1.00;99.90;;;;;;5041122;28;20074;-61
2022/01/10 07:53:30;;;;;;;52.60;26.48;;;0.90;99.90;;;;;;5052659;28;20509;-61
2022/01/10 07:55:59;;;;;;;56.47;27.15;;;1.00;99.90;;;;;;5051480;28;20029;-61
2022/01/10 07:58:25;;;;;;;49.28;24.13;;;1.00;99.90;;;;;;5057281;28;20817;-60
2022/01/10 08:00:53;;;;;;;43.72;21.75;;;1.10;99.90;;;;;;5057068;28;20017;-61
2022/01/10 08:03:22;;;;;;;54.03;25.38;;;1.10;99.90;;;;;;5054512;28;20040;-61
2022/01/10 08:05:54;;;;;;;47.40;23.60;;;1.00;99.90;;;;;;5055167;28;20498;-61
2022/01/10 08:08:24;;;;;;;51.05;22.75;;;1.00;99.90;;;;;;5056684;28;20402;-61
2022/01/10 08:10:52;;;;;;;41.63;21.93;;;1.00;99.90;;;;;;5056895;28;20459;-62
2022/01/10 08:13:19;;;;;;;43.88;22.42;;;1.00;99.90;;;;;;5057237;28;20032;-62
2022/01/10 08:15:49;;;;;;;52.85;26.15;;;1.00;99.90;;;;;;5054943;28;20037;-62
2022/01/10 08:18:16;;;;;;;48.85;23.48;;;1.10;99.90;;;;;;5055737;28;20025;-62
2022/01/10 08:20:42;;;;;;;61.28;25.50;;;1.10;99.90;;;;;;5052987;28;20389;-61
2022/01/10 08:23:08;;;;;;;51.25;24.80;;;1.20;99.90;;;;;;5050324;28;20037;-61
2022/01/10 08:25:34;;;;;;;56.45;25.30;;;1.30;99.90;;;;;;5041763;28;20040;-61
2022/01/10 08:28:01;;;;;;;46.03;22.13;;;1.10;99.90;;;;;;5045972;28;20032;-62
2022/01/10 08:30:27;;;;;;;54.17;24.98;;;1.10;99.90;;;;;;5047370;28;20163;-62
2022/01/10 08:32:53;;;;;;;54.50;25.35;;;1.10;99.90;;;;;;5055659;28;20034;-62
2022/01/10 08:35:19;;;;;;;49.15;24.20;;;1.10;99.90;;;;;;5039556;28;20037;-62
2022/01/10 08:37:46;;;;;;;62.17;24.90;;;1.10;99.90;;;;;;5041617;28;20029;-61
2022/01/10 08:40:12;;;;;;;46.33;23.98;;;1.10;99.90;;;;;;5041558;28;20040;-61
2022/01/10 08:42:42;;;;;;;45.35;23.13;;;1.00;99.90;;;;;;5042080;28;20049;-61
2022/01/10 08:45:09;;;;;;;44.00;22.02;;;0.90;99.90;;;;;;5051200;28;20022;-61
2022/01/10 08:47:36;;;;;;;54.88;24.88;;;1.00;99.90;;;;;;5053990;28;20017;-61
2022/01/10 08:50:04;;;;;;;48.88;24.58;;;1.10;99.90;;;;;;5056846;28;20419;-61
2022/01/10 08:52:30;;;;;;;46.00;23.17;;;1.20;99.90;;;;;;5046194;28;20053;-60
2022/01/10 08:54:56;;;;;;;61.88;26.30;;;1.20;99.90;;;;;;5037843;28;20033;-61
2022/01/10 08:57:22;;;;;;;44.88;22.30;;;1.00;99.90;;;;;;5053648;28;20042;-61
2022/01/10 08:59:48;;;;;;;49.55;25.55;;;1.20;99.90;;;;;;5038694;28;20366;-61
2022/01/10 09:02:14;;;;;;;53.22;25.17;;;1.20;99.90;;;;;;5044461;28;20025;-61
2022/01/10 09:04:41;;;;;;;62.30;26.65;;;1.30;99.90;;;;;;5049885;28;20040;-61
2022/01/10 09:07:08;;;;;;;54.40;26.50;;;1.30;99.90;;;;;;5048029;28;20032;-61
2022/01/10 09:09:38;;;;;;;56.35;25.75;;;1.20;99.90;;;;;;5055971;28;20028;-61
2022/01/10 09:12:05;;;;;;;61.35;26.77;;;1.20;99.90;;;;;;5045147;28;20065;-60
2022/01/10 09:14:32;;;;;;;61.17;27.30;;;1.30;99.90;;;;;;5047529;28;20021;-61
2022/01/10 09:16:58;;;;;;;56.22;25.52;;;1.20;99.90;;;;;;5046709;28;20029;-61
2022/01/10 09:19:24;;;;;;;61.97;26.25;;;1.20;99.90;;;;;;5046758;28;20021;-50
2022/01/10 09:21:50;;;;;;;58.40;27.13;;;1.20;99.90;;;;;;5054943;28;20021;-50
2022/01/10 09:24:16;;;;;;;71.88;26.55;;;1.20;99.90;;;;;;5056115;28;20044;-50
2022/01/10 09:26:42;;;;;;;76.47;31.42;;;1.30;99.90;;;;;;5045467;28;20033;-50
2022/01/10 09:29:08;;;;;;;81.93;35.83;;;1.30;99.90;;;;;;5053440;28;20025;-50
2022/01/10 09:31:34;;;;;;;45.20;24.27;;;1.30;99.90;;;;;;5054858;28;20033;-50
2022/01/10 09:34:01;;;;;;;51.45;25.33;;;1.30;99.90;;;;;;5055364;28;20060;-50
2022/01/10 09:36:29;;;;;;;45.55;22.75;;;1.40;99.90;;;;;;5055369;28;20052;-50
2022/01/10 09:38:57;;;;;;;72.93;28.95;;;1.40;99.90;;;;;;5041293;28;20064;-50
2022/01/10 09:41:24;;;;;;;56.78;24.38;;;1.40;99.90;;;;;;5035262;28;20098;-50
2022/01/10 09:44:01;;;;;;;53.50;25.13;;;1.30;99.90;;;;;;5034365;28;20025;-50
2022/01/10 09:46:27;;;;;;;61.35;24.75;;;1.30;99.90;;;;;;5052817;28;20055;-50
2022/01/10 09:48:55;;;;;;;51.63;25.40;;;1.30;99.90;;;;;;5054572;28;20029;-50
2022/01/10 09:51:26;;;;;;;56.88;26.98;;;1.30;99.90;;;;;;5055274;28;20040;-50
2022/01/10 09:53:54;;;;;;;66.13;28.48;;;1.30;99.90;;;;;;5048601;28;20045;-50
2022/01/10 09:56:20;;;;;;;54.97;25.45;;;1.40;99.90;;;;;;5043218;28;20021;-50
2022/01/10 09:58:46;;;;;;;57.17;27.40;;;1.50;99.90;;;;;;5046883;28;20037;-50
2022/01/10 10:01:16;;;;;;;62.38;26.55;;;1.50;99.90;;;;;;5035477;28;20423;-50
2022/01/10 10:03:47;;;;;;;50.00;25.52;;;1.70;99.90;;;;;;5041349;28;20029;-50
2022/01/10 10:06:16;;;;;;;51.97;24.33;;;1.70;99.90;;;;;;5053398;28;20490;-50
2022/01/10 10:08:42;;;;;;;61.40;26.65;;;1.80;99.90;;;;;;5054173;28;20040;-50
2022/01/10 10:11:09;;;;;;;48.80;25.45;;;1.80;99.90;;;;;;5054836;28;20068;-50
2022/01/10 10:13:45;;;;;;;54.40;24.80;;;1.70;99.90;;;;;;5054573;28;20083;-50
2022/01/10 10:16:14;;;;;;;76.57;26.67;;;1.70;99.90;;;;;;5055271;28;20670;-50
2022/01/10 10:18:41;;;;;;;47.88;25.00;;;1.90;99.90;;;;;;5053902;28;20082;-50
2022/01/10 10:21:15;;;;;;;54.80;26.95;;;1.90;99.90;;;;;;5051509;28;20056;-50
2022/01/10 10:23:46;;;;;;;52.17;25.35;;;1.80;99.90;;;;;;5053893;28;20084;-50
2022/01/10 10:26:21;;;;;;;56.30;29.17;;;1.90;99.90;;;;;;5054092;28;20505;-50
2022/01/10 10:28:48;;;;;;;54.83;26.55;;;1.80;99.90;;;;;;5054786;28;20068;-50
2022/01/10 10:31:28;;;;;;;68.97;31.80;;;1.90;99.90;;;;;;5054343;28;20040;-50
2022/01/10 10:33:55;;;;;;;75.88;29.77;;;2.00;99.90;;;;;;5052671;28;20116;-50
2022/01/10 10:36:21;;;;;;;50.90;24.77;;;2.00;99.90;;;;;;5053173;28;20405;-50
2022/01/10 10:38:47;;;;;;;58.15;26.88;;;2.00;99.90;;;;;;5053039;28;20119;-50
2022/01/10 10:41:13;;;;;;;54.72;26.10;;;2.10;99.90;;;;;;5047743;28;20029;-50
2022/01/10 10:43:42;;;;;;;65.85;27.00;;;2.20;99.90;;;;;;5049828;28;20475;-50
2022/01/10 10:46:14;;;;;;;60.75;27.77;;;2.20;99.90;;;;;;5051993;28;20032;-50
2022/01/10 10:48:45;;;;;;;62.63;27.33;;;2.20;99.90;;;;;;5046846;28;20032;-50
2022/01/10 10:51:12;;;;;;;56.30;28.00;;;2.40;99.90;;;;;;5046436;28;20463;-50
2022/01/10 10:53:39;;;;;;;58.65;28.27;;;2.40;99.90;;;;;;5051847;28;20077;-50
2022/01/10 10:56:06;;;;;;;72.60;30.50;;;2.20;99.90;;;;;;5054893;28;20561;-50
2022/01/10 10:58:33;;;;;;;77.07;36.38;;;2.30;99.90;;;;;;5054428;28;20025;-50
2022/01/10 11:01:00;;;;;;;100.03;41.30;;;2.30;99.90;;;;;;5054365;28;20032;-50
2022/01/10 11:03:27;;;;;;;89.43;36.67;;;2.30;99.90;;;;;;5053392;28;20041;-50
2022/01/10 11:05:57;;;;;;;87.07;37.08;;;2.30;99.90;;;;;;5054162;28;20028;-50
2022/01/10 11:08:28;;;;;;;83.32;36.03;;;2.20;99.90;;;;;;5040118;28;20752;-50
2022/01/10 11:10:54;;;;;;;78.45;36.25;;;2.20;99.90;;;;;;5053041;28;20048;-50
2022/01/10 11:13:23;;;;;;;71.78;35.00;;;2.20;99.90;;;;;;5053837;28;20037;-50
2022/01/10 11:15:49;;;;;;;94.35;38.80;;;2.30;99.90;;;;;;5053952;28;20021;-50
2022/01/10 11:18:16;;;;;;;118.50;46.42;;;2.30;99.90;;;;;;5054562;28;20028;-50
2022/01/10 11:20:43;;;;;;;116.78;44.30;;;2.40;99.90;;;;;;5042834;28;20116;-50
2022/01/10 11:23:22;;;;;;;95.32;43.80;;;2.30;99.90;;;;;;5045526;28;20032;-50
2022/01/10 11:25:48;;;;;;;110.78;48.47;;;2.40;99.90;;;;;;5053077;28;20029;-51
2022/01/10 11:28:26;;;;;;;107.28;42.47;;;2.40;99.90;;;;;;5042840;28;20024;-50
2022/01/10 11:31:03;;;;;;;83.05;39.38;;;2.30;99.90;;;;;;5051066;28;20354;-50
2022/01/10 11:33:32;;;;;;;86.20;40.55;;;2.30;99.90;;;;;;5046638;28;20116;-50
2022/01/10 11:36:05;;;;;;;90.20;38.63;;;2.30;99.90;;;;;;5055966;28;20464;-50
2022/01/10 11:38:35;;;;;;;89.45;41.17;;;2.30;99.90;;;;;;5051441;28;20021;-50
2022/01/10 11:41:04;;;;;;;87.97;38.47;;;2.20;99.90;;;;;;5045482;28;20096;-50
2022/01/10 11:43:41;;;;;;;102.22;43.03;;;2.10;99.90;;;;;;5041527;28;20029;-50
2022/01/10 11:46:27;;;;;;;88.82;42.58;;;2.10;99.90;;;;;;5049469;28;20033;-50
2022/01/10 11:49:17;;;;;;;76.85;34.95;;;2.20;99.90;;;;;;5051796;28;20036;-50
2022/01/10 11:51:53;;;;;;;84.05;37.75;;;2.10;99.90;;;;;;5055869;28;20032;-50
2022/01/10 11:54:41;;;;;;;84.88;36.50;;;2.10;99.90;;;;;;5043838;28;20037;-50
2022/01/10 11:57:15;;;;;;;72.38;35.15;;;2.00;99.90;;;;;;5042232;28;20032;-50
2022/01/10 11:59:48;;;;;;;80.10;37.45;;;1.90;99.90;;;;;;5043852;28;20386;-50
2022/01/10 12:02:18;;;;;;;78.95;35.58;;;1.80;99.90;;;;;;5045733;28;20029;-50
2022/01/10 12:04:50;;;;;;;90.68;35.38;;;1.80;99.90;;;;;;5043309;28;20030;-50
2022/01/10 12:07:19;;;;;;;84.05;35.30;;;1.80;99.90;;;;;;5047902;28;20037;-50
2022/01/10 12:09:49;;;;;;;68.40;31.65;;;1.80;99.90;;;;;;5043756;28;20491;-50
2022/01/10 12:12:20;;;;;;;65.07;30.70;;;1.80;99.90;;;;;;5042753;28;20025;-50
2022/01/10 12:14:47;;;;;;;;;;;1.80;99.90;;;;;;5039748;28;20438;-50
2022/01/10 12:17:14;;;;;;;61.70;29.05;;;1.80;99.90;;;;;;5041976;28;19909;-50
2022/01/10 12:19:41;;;;;;;66.85;33.30;;;1.80;99.90;;;;;;5040527;28;20021;-50
2022/01/10 12:22:09;;;;;;;69.15;32.95;;;1.70;99.90;;;;;;5048974;28;20095;-50
2022/01/10 12:24:37;;;;;;;61.92;32.50;;;1.70;99.90;;;;;;5045561;28;20029;-50
2022/01/10 12:27:06;;;;;;;73.63;35.08;;;1.80;99.90;;;;;;5055016;28;20505;-50
2022/01/10 12:29:35;;;;;;;64.75;33.05;;;1.90;99.90;;;;;;5053399;28;20025;-50
2022/01/10 12:32:05;;;;;;;65.70;30.23;;;1.80;99.90;;;;;;5045044;28;20175;-50
2022/01/10 12:34:31;;;;;;;68.10;32.90;;;1.90;99.90;;;;;;5053834;28;20471;-50
2022/01/10 12:37:00;;;;;;;66.32;32.67;;;2.10;99.90;;;;;;5057454;28;20029;-50
2022/01/10 12:39:28;;;;;;;64.15;30.90;;;2.10;99.90;;;;;;5056865;28;20036;-50
2022/01/10 12:41:57;;;;;;;66.10;32.42;;;2.10;99.90;;;;;;5037636;28;20068;-50
2022/01/10 12:44:27;;;;;;;63.17;33.65;;;2.10;99.90;;;;;;5048292;28;20036;-50
2022/01/10 12:46:56;;;;;;;71.28;34.10;;;2.20;99.90;;;;;;5053609;28;20029;-50
2022/01/10 12:49:26;;;;;;;58.03;29.58;;;2.20;99.90;;;;;;5040032;28;20156;-50
2022/01/10 12:52:15;;;;;;;63.65;31.75;;;2.20;99.90;;;;;;5036184;28;20402;-50
2022/01/10 12:54:44;;;;;;;60.35;29.77;;;2.20;99.90;;;;;;5036084;28;20041;-50
2022/01/10 12:57:23;;;;;;;68.50;32.67;;;2.10;99.90;;;;;;5036606;28;20029;-50